Time;durP1;ratioP1;P1;durP2;ratioP2;P2;SDS_P1;SDS_P2;PMS_P1;PMS_P2;Temp;Humidity;BMP_temperature;BMP_pressure;BME280_temperature;BME280_humidity;BME280_pressure;Samples;Min_cycle;Max_cycle;Signal;HPM_P1;HPM_P2
2022/07/14 00:02:24;;;;;;;13.57;2.80;;;15.40;99.90;;;;;;6271267;28;20053;-79
2022/07/14 00:05:26;;;;;;;10.50;2.70;;;15.40;99.90;;;;;;6267094;28;20049;-80
2022/07/14 00:08:28;;;;;;;12.73;2.83;;;15.40;99.90;;;;;;6271442;28;20056;-80
2022/07/14 00:11:30;;;;;;;11.65;2.75;;;15.40;99.90;;;;;;6270675;28;20081;-80
2022/07/14 00:14:32;;;;;;;9.63;2.00;;;15.30;99.90;;;;;;6303063;28;20056;-80
2022/07/14 00:17:35;;;;;;;11.80;2.47;;;15.20;99.90;;;;;;6271649;28;20054;-80
2022/07/14 00:20:37;;;;;;;12.30;2.38;;;15.30;99.90;;;;;;6271258;28;20053;-80
2022/07/14 00:23:39;;;;;;;13.65;2.63;;;15.30;99.90;;;;;;6269398;28;20057;-80
2022/07/14 00:26:41;;;;;;;17.00;2.67;;;15.20;99.90;;;;;;6263744;28;20057;-80
2022/07/14 00:29:43;;;;;;;9.43;2.55;;;15.10;99.90;;;;;;6262014;28;20050;-81
2022/07/14 00:32:46;;;;;;;8.55;2.08;;;15.00;99.90;;;;;;6246653;28;20057;-81
2022/07/14 00:35:48;;;;;;;11.93;2.50;;;15.00;99.90;;;;;;6262729;28;20406;-81
2022/07/14 00:38:50;;;;;;;10.02;1.90;;;15.10;99.90;;;;;;6270906;28;20045;-81
2022/07/14 00:41:52;;;;;;;10.57;2.50;;;15.10;99.90;;;;;;6269759;28;20143;-80
2022/07/14 00:44:54;;;;;;;15.65;3.42;;;15.00;99.90;;;;;;6263800;28;20520;-80
2022/07/14 00:47:57;;;;;;;12.52;2.95;;;15.00;99.90;;;;;;6271056;28;20049;-80
2022/07/14 00:50:59;;;;;;;12.95;2.65;;;15.00;99.90;;;;;;6269909;28;20049;-80
2022/07/14 00:54:01;;;;;;;12.13;3.00;;;14.90;99.90;;;;;;6268989;28;20049;-81
2022/07/14 00:57:03;;;;;;;14.48;2.65;;;15.00;99.90;;;;;;6271067;28;20052;-80
2022/07/14 01:00:08;;;;;;;11.13;2.53;;;15.00;99.90;;;;;;6267606;28;20413;-80
2022/07/14 01:03:11;;;;;;;9.00;2.33;;;15.00;99.90;;;;;;6261482;28;20137;-80
2022/07/14 01:06:13;;;;;;;17.05;2.97;;;15.00;99.90;;;;;;6268725;28;20049;-80
2022/07/14 01:09:15;;;;;;;14.10;2.72;;;15.00;99.90;;;;;;6271714;28;20052;-80
2022/07/14 01:12:17;;;;;;;10.13;2.30;;;15.00;99.90;;;;;;6275089;28;20502;-81
2022/07/14 01:15:20;;;;;;;11.48;2.20;;;14.90;99.90;;;;;;6274545;28;20056;-80
2022/07/14 01:18:23;;;;;;;13.25;3.17;;;14.90;99.90;;;;;;6268395;28;20053;-80
2022/07/14 01:21:26;;;;;;;18.15;3.05;;;14.80;99.90;;;;;;6275797;28;20072;-79
2022/07/14 01:24:29;;;;;;;12.40;2.67;;;14.70;99.90;;;;;;6274040;28;20079;-80
2022/07/14 01:27:30;;;;;;;15.90;2.90;;;14.70;99.90;;;;;;6275020;28;20045;-80
2022/07/14 01:30:33;;;;;;;12.20;2.40;;;14.70;99.90;;;;;;6274386;28;20486;-79
2022/07/14 01:33:35;;;;;;;14.23;2.85;;;14.60;99.90;;;;;;6270921;28;20387;-80
2022/07/14 01:36:38;;;;;;;14.43;3.17;;;14.60;99.90;;;;;;6252107;28;20128;-80
2022/07/14 01:39:40;;;;;;;10.60;2.88;;;14.50;99.90;;;;;;6265358;28;20053;-80
2022/07/14 01:42:42;;;;;;;12.68;3.00;;;14.40;99.90;;;;;;6249580;28;20057;-80
2022/07/14 01:45:44;;;;;;;17.67;3.03;;;14.40;99.90;;;;;;6264783;28;20404;-80
2022/07/14 01:48:46;;;;;;;13.90;2.60;;;14.40;99.90;;;;;;6274218;28;20049;-80
2022/07/14 01:51:49;;;;;;;15.38;2.70;;;14.40;99.90;;;;;;6272116;28;20525;-80
2022/07/14 01:54:51;;;;;;;12.82;2.88;;;14.40;99.90;;;;;;6305725;28;20061;-80
2022/07/14 01:57:53;;;;;;;13.60;2.47;;;14.40;99.90;;;;;;6253826;28;20066;-80
2022/07/14 02:04:12;;;;;;;16.40;3.17;;;14.30;99.90;;;;;;6258659;28;20536;-80
2022/07/14 02:07:16;;;;;;;16.10;3.42;;;14.40;99.90;;;;;;6272381;28;20482;-80
2022/07/14 02:13:37;;;;;;;10.77;3.10;;;14.30;99.90;;;;;;6269772;28;20402;-80
2022/07/14 02:16:39;;;;;;;11.50;2.75;;;14.20;99.90;;;;;;6268519;28;20037;-80
2022/07/14 02:19:41;;;;;;;10.80;2.80;;;14.20;99.90;;;;;;6269348;28;20490;-80
2022/07/14 02:22:44;;;;;;;14.05;3.15;;;14.10;99.90;;;;;;6270945;28;20052;-80
2022/07/14 02:25:46;;;;;;;12.63;3.45;;;14.10;99.90;;;;;;6269860;28;20494;-80
2022/07/14 02:28:48;;;;;;;11.02;3.03;;;14.00;99.90;;;;;;6272742;28;20052;-80
2022/07/14 02:31:50;;;;;;;9.35;3.03;;;14.00;99.90;;;;;;6305668;28;20119;-80
2022/07/14 02:34:52;;;;;;;10.00;3.25;;;13.90;99.90;;;;;;6263240;28;20049;-80
2022/07/14 02:37:55;;;;;;;12.82;3.15;;;13.90;99.90;;;;;;6272643;28;20483;-80
2022/07/14 02:40:57;;;;;;;15.52;3.50;;;13.90;99.90;;;;;;6271875;28;20048;-80
2022/07/14 02:43:59;;;;;;;12.98;3.60;;;13.90;99.90;;;;;;6255013;28;20490;-80
2022/07/14 02:47:01;;;;;;;12.00;3.55;;;13.80;99.90;;;;;;6259359;28;20045;-80
2022/07/14 02:50:04;;;;;;;10.30;3.25;;;13.70;99.90;;;;;;6271089;28;20052;-80
2022/07/14 02:53:07;;;;;;;11.43;3.80;;;13.70;99.90;;;;;;6273780;28;20067;-80
2022/07/14 02:56:09;;;;;;;;;;;13.60;99.90;;;;;;6272417;28;20507;-80
2022/07/14 02:59:11;;;;;;;14.02;3.78;;;13.60;99.90;;;;;;6268248;28;19921;-80
2022/07/14 03:02:13;;;;;;;9.55;3.15;;;13.60;99.90;;;;;;6257734;28;20049;-80
2022/07/14 03:05:16;;;;;;;11.32;3.30;;;13.70;99.90;;;;;;6271804;28;20057;-80
2022/07/14 03:08:19;;;;;;;13.75;3.67;;;13.70;99.90;;;;;;6270313;28;20052;-80
2022/07/14 03:11:21;;;;;;;10.63;3.40;;;13.70;99.90;;;;;;6272632;28;20060;-80
2022/07/14 03:14:23;;;;;;;11.10;3.00;;;13.80;99.90;;;;;;6272058;28;20482;-80
2022/07/14 03:17:25;;;;;;;9.02;2.67;;;13.80;99.90;;;;;;6264634;28;20450;-80
2022/07/14 03:20:27;;;;;;;9.88;3.13;;;13.80;99.90;;;;;;6271601;28;20053;-79
2022/07/14 03:23:31;;;;;;;11.27;3.10;;;13.80;99.90;;;;;;6304871;28;20063;-80
2022/07/14 03:26:33;;;;;;;7.40;2.30;;;13.90;99.90;;;;;;6271531;28;20049;-80
2022/07/14 03:29:35;;;;;;;11.15;3.15;;;13.90;99.90;;;;;;6269939;28;20459;-80
2022/07/14 03:32:37;;;;;;;8.15;2.05;;;13.90;99.90;;;;;;6267551;28;20854;-80
2022/07/14 03:35:39;;;;;;;12.15;2.75;;;13.90;99.90;;;;;;6270534;28;20525;-80
2022/07/14 03:38:43;;;;;;;13.35;3.00;;;13.90;99.90;;;;;;6271722;28;20045;-80
2022/07/14 03:41:44;;;;;;;14.30;2.78;;;14.00;99.90;;;;;;6271098;28;20063;-79
2022/07/14 03:44:46;;;;;;;11.57;2.72;;;13.90;99.90;;;;;;6270534;28;20056;-80
2022/07/14 03:47:48;;;;;;;12.98;2.95;;;13.90;99.90;;;;;;6269829;28;20340;-79
2022/07/14 03:50:50;;;;;;;12.40;3.65;;;13.90;99.90;;;;;;6266362;28;20049;-79
2022/07/14 03:53:54;;;;;;;11.68;3.60;;;13.90;99.90;;;;;;6270706;28;20135;-80
2022/07/14 03:56:56;;;;;;;;;;;13.80;99.90;;;;;;6271640;28;20059;-80
2022/07/14 03:59:58;;;;;;;12.30;3.40;;;13.80;99.90;;;;;;6266448;28;19928;-80
2022/07/14 04:02:59;;;;;;;10.30;3.28;;;13.90;99.90;;;;;;6247237;28;20056;-80
2022/07/14 04:06:01;;;;;;;13.15;3.85;;;13.90;99.90;;;;;;6246733;28;20049;-80
2022/07/14 04:09:06;;;;;;;13.77;3.90;;;13.90;99.90;;;;;;6291422;28;20053;-80
2022/07/14 04:12:08;;;;;;;11.88;3.75;;;14.00;99.90;;;;;;6246122;28;20541;-80
2022/07/14 04:15:11;;;;;;;12.38;3.70;;;14.00;99.90;;;;;;6246935;28;20053;-80
2022/07/14 04:18:14;;;;;;;9.93;3.40;;;13.90;99.90;;;;;;6255449;28;20618;-80
2022/07/14 04:21:16;;;;;;;12.27;4.53;;;13.80;99.90;;;;;;6270019;28;20044;-80
2022/07/14 04:24:19;;;;;;;9.48;3.88;;;13.80;99.90;;;;;;6258008;28;20045;-80
2022/07/14 04:27:21;;;;;;;12.35;3.60;;;13.80;99.90;;;;;;6271543;28;20045;-79
2022/07/14 04:30:23;;;;;;;15.23;4.13;;;13.80;99.90;;;;;;6302911;28;20056;-79
2022/07/14 04:33:25;;;;;;;13.00;4.23;;;13.80;99.90;;;;;;6264218;28;20040;-80
2022/07/14 04:36:27;;;;;;;10.48;3.88;;;13.80;99.90;;;;;;6270223;28;20505;-80
2022/07/14 04:39:31;;;;;;;12.23;3.95;;;13.80;99.90;;;;;;6268370;28;20413;-81
2022/07/14 04:42:32;;;;;;;12.52;3.30;;;13.90;99.90;;;;;;6247275;28;20379;-80
2022/07/14 04:45:34;;;;;;;12.15;4.20;;;13.90;99.90;;;;;;6273039;28;20607;-80
2022/07/14 04:52:01;;;;;;;11.60;4.38;;;13.90;99.90;;;;;;6308551;28;20409;-80
2022/07/14 04:52:03;;;;;;;12.38;4.35;;;14.10;99.90;;;;;;6273034;28;20475;-80
2022/07/14 04:55:07;;;;;;;8.75;2.95;;;14.20;99.90;;;;;;6275753;28;20128;-79
2022/07/14 04:58:09;;;;;;;9.10;2.05;;;14.40;99.90;;;;;;6270638;28;20037;-80
2022/07/14 05:01:12;;;;;;;4.75;1.50;;;14.70;99.90;;;;;;6306002;28;20486;-79
2022/07/14 05:04:14;;;;;;;8.15;3.60;;;15.20;99.90;;;;;;6291256;28;20052;-79
2022/07/14 05:07:17;;;;;;;10.90;3.22;;;15.60;99.90;;;;;;6306752;28;20143;-80
2022/07/14 05:10:21;;;;;;;9.65;2.60;;;15.70;99.90;;;;;;6274728;28;20045;-79
2022/07/14 05:13:22;;;;;;;;;;;15.90;99.90;;;;;;6274577;28;20057;-79
2022/07/14 05:16:24;;;;;;;11.98;2.88;;;15.80;99.90;;;;;;6273692;28;20369;-79
2022/07/14 05:19:26;;;;;;;9.57;3.25;;;16.10;99.90;;;;;;6275183;28;20060;-80
2022/07/14 05:22:28;;;;;;;9.80;2.85;;;16.30;99.90;;;;;;6273828;28;20517;-80
2022/07/14 05:25:31;;;;;;;12.27;3.22;;;16.00;99.90;;;;;;6274806;28;20422;-79
2022/07/14 05:28:33;;;;;;;10.73;2.72;;;15.90;99.90;;;;;;6275218;28;20045;-80
2022/07/14 05:31:35;;;;;;;5.63;2.15;;;15.80;99.90;;;;;;6261645;28;20046;-80
2022/07/14 05:34:42;;;;;;;9.32;2.10;;;15.60;99.90;;;;;;6264009;28;20041;-80
2022/07/14 05:37:44;;;;;;;9.50;1.88;;;15.50;99.90;;;;;;6273631;28;20045;-80
2022/07/14 05:40:47;;;;;;;9.07;2.55;;;15.50;99.90;;;;;;6271234;28;20045;-80
2022/07/14 05:43:49;;;;;;;8.93;1.90;;;15.60;99.90;;;;;;6272931;28;20119;-73
2022/07/14 05:46:51;;;;;;;14.48;2.40;;;15.50;99.90;;;;;;6274378;28;20406;-79
2022/07/14 05:49:53;;;;;;;11.57;2.50;;;15.50;99.90;;;;;;6270094;28;20051;-80
2022/07/14 05:52:55;;;;;;;8.35;1.73;;;15.50;99.90;;;;;;6273430;28;20053;-80
2022/07/14 05:55:58;;;;;;;9.60;1.88;;;15.80;99.90;;;;;;6274654;28;20102;-80
2022/07/14 05:59:00;;;;;;;9.90;1.92;;;16.00;99.90;;;;;;6274513;28;20052;-80
2022/07/14 06:02:02;;;;;;;7.97;1.80;;;16.10;99.90;;;;;;6250850;28;20053;-75
2022/07/14 06:05:05;;;;;;;99.30;22.35;;;16.20;99.90;;;;;;6267982;28;20425;-80
2022/07/14 06:08:07;;;;;;;9.82;2.30;;;16.20;99.90;;;;;;6269973;28;20045;-75
2022/07/14 06:11:10;;;;;;;8.43;1.88;;;16.50;99.90;;;;;;6272942;28;20102;-75
2022/07/14 06:14:13;;;;;;;9.02;1.80;;;16.50;99.90;;;;;;6263499;28;20057;-75
2022/07/14 06:17:15;;;;;;;6.93;1.67;;;16.60;99.90;;;;;;6275074;28;20474;-74
2022/07/14 06:20:17;;;;;;;9.18;1.98;;;16.80;99.90;;;;;;6271822;28;20064;-75
2022/07/14 06:23:20;;;;;;;8.35;1.70;;;16.80;99.90;;;;;;6260000;28;20086;-75
2022/07/14 06:26:23;;;;;;;8.35;1.42;;;16.80;99.90;;;;;;6258497;28;20124;-75
2022/07/14 06:29:25;;;;;;;8.73;1.85;;;16.30;99.90;;;;;;6272133;28;20102;-75
2022/07/14 06:32:27;;;;;;;7.10;1.15;;;16.00;99.90;;;;;;6267521;28;20532;-75
2022/07/14 06:35:29;;;;;;;5.65;1.92;;;16.00;99.90;;;;;;6248351;28;20411;-75
2022/07/14 06:38:31;;;;;;;6.50;1.10;;;16.00;99.90;;;;;;6248374;28;20045;-75
2022/07/14 06:41:35;;;;;;;5.90;1.10;;;16.10;99.90;;;;;;6249628;28;20048;-75
2022/07/14 06:44:36;;;;;;;7.13;1.38;;;16.20;99.90;;;;;;6271771;28;20045;-75
2022/07/14 06:47:38;;;;;;;5.95;1.25;;;16.20;99.90;;;;;;6292081;28;20049;-75
2022/07/14 06:50:40;;;;;;;6.53;1.77;;;16.20;99.90;;;;;;6272772;28;20045;-75
2022/07/14 06:53:42;;;;;;;8.02;1.27;;;16.40;99.90;;;;;;6271415;28;20059;-75
2022/07/14 06:56:45;;;;;;;4.65;1.00;;;16.60;99.90;;;;;;6273177;28;20051;-75
2022/07/14 06:59:47;;;;;;;4.45;1.33;;;16.90;99.90;;;;;;6287068;28;20048;-75
2022/07/14 07:02:49;;;;;;;4.72;1.08;;;16.80;99.90;;;;;;6304966;28;20055;-74
2022/07/14 07:09:10;;;;;;;7.90;1.42;;;17.30;99.90;;;;;;6272660;28;20079;-75
2022/07/14 07:12:14;;;;;;;5.95;1.58;;;17.40;99.90;;;;;;6272461;28;20051;-75
2022/07/14 07:15:16;;;;;;;6.72;1.45;;;17.60;99.90;;;;;;6270945;28;20513;-75
2022/07/14 07:18:18;;;;;;;6.97;1.10;;;17.90;99.90;;;;;;6303985;28;20049;-74
2022/07/14 07:21:20;;;;;;;6.75;1.10;;;18.20;99.90;;;;;;6304373;28;20064;-75
2022/07/14 07:24:22;;;;;;;4.05;0.80;;;18.80;99.90;;;;;;6271878;28;20150;-75
2022/07/14 07:27:26;;;;;;;3.95;0.93;;;19.40;99.90;;;;;;6271960;28;20045;-74
2022/07/14 07:30:27;;;;;;;4.40;1.00;;;19.60;99.90;;;;;;6268653;28;20048;-75
2022/07/14 07:33:29;;;;;;;6.40;1.10;;;19.90;99.90;;;;;;6256254;28;20083;-75
2022/07/14 07:36:31;;;;;;;6.03;1.10;;;19.70;99.90;;;;;;6266835;28;20071;-75
2022/07/14 07:39:34;;;;;;;3.92;1.00;;;19.20;99.90;;;;;;6270524;28;20061;-75
2022/07/14 07:42:38;;;;;;;6.25;0.90;;;19.00;99.90;;;;;;6271765;28;20040;-75
2022/07/14 07:45:40;;;;;;;6.75;1.08;;;18.80;99.90;;;;;;6303425;28;20056;-75
2022/07/14 07:48:42;;;;;;;7.03;0.75;;;19.00;99.90;;;;;;6264176;28;20045;-75
2022/07/14 07:51:43;;;;;;;5.13;0.85;;;19.20;99.90;;;;;;6273412;28;20060;-75
2022/07/14 07:54:45;;;;;;;3.63;0.90;;;19.00;99.90;;;;;;6271728;28;20045;-75
2022/07/14 07:57:49;;;;;;;4.70;0.98;;;19.50;99.90;;;;;;6270143;28;20554;-75
2022/07/14 08:00:51;;;;;;;4.68;0.70;;;19.80;99.90;;;;;;6259903;28;20041;-75
2022/07/14 08:03:53;;;;;;;3.97;0.85;;;19.80;99.90;;;;;;6269951;28;20437;-75
2022/07/14 08:06:55;;;;;;;4.35;0.90;;;19.60;99.90;;;;;;6258648;28;20142;-76
2022/07/14 08:09:57;;;;;;;2.80;0.70;;;19.50;99.90;;;;;;6271532;28;20053;-75
2022/07/14 08:13:00;;;;;;;5.78;0.90;;;19.30;99.90;;;;;;6271782;28;20045;-75
2022/07/14 08:16:02;;;;;;;1.77;0.60;;;19.50;99.90;;;;;;6270278;28;20056;-76
2022/07/14 08:19:04;;;;;;;4.38;0.98;;;19.90;99.90;;;;;;6272617;28;20049;-75
2022/07/14 08:22:06;;;;;;;4.30;0.80;;;20.30;99.90;;;;;;6273139;28;20053;-75
2022/07/14 08:25:10;;;;;;;2.47;0.68;;;20.60;99.90;;;;;;6274024;28;20057;-75
2022/07/14 08:28:13;;;;;;;2.03;0.65;;;20.30;99.90;;;;;;6291910;28;20516;-75
2022/07/14 08:31:15;;;;;;;;;;;20.30;99.90;;;;;;6277014;28;20060;-75
2022/07/14 08:34:17;;;;;;;2.95;0.60;;;19.90;99.90;;;;;;6276307;28;19966;-75
2022/07/14 08:37:19;;;;;;;3.08;0.60;;;20.00;99.90;;;;;;6276976;28;20128;-75
2022/07/14 08:40:24;;;;;;;4.30;0.77;;;19.60;99.90;;;;;;6305314;28;20051;-75
2022/07/14 08:43:29;;;;;;;3.55;0.82;;;19.40;99.90;;;;;;6291624;28;20788;-75
2022/07/14 08:46:32;;;;;;;4.38;0.85;;;19.70;99.90;;;;;;6274238;28;20056;-75
2022/07/14 08:49:34;;;;;;;4.32;0.80;;;19.90;99.90;;;;;;6307880;28;20053;-75
2022/07/14 08:52:37;;;;;;;4.53;0.70;;;20.00;99.90;;;;;;6308578;28;20072;-75
2022/07/14 08:55:39;;;;;;;4.10;0.63;;;20.10;99.90;;;;;;6274247;28;20049;-75
2022/07/14 08:58:44;;;;;;;4.32;0.90;;;20.10;99.90;;;;;;6250777;28;20045;-75
2022/07/14 09:01:49;;;;;;;2.80;0.60;;;20.60;99.90;;;;;;6266442;28;20509;-75
2022/07/14 09:04:51;;;;;;;4.15;0.70;;;20.90;99.90;;;;;;6249219;28;20158;-75
2022/07/14 09:07:57;;;;;;;2.25;0.57;;;20.90;99.90;;;;;;6249756;28;20045;-75
2022/07/14 09:10:58;;;;;;;2.08;0.60;;;20.80;99.90;;;;;;6251292;28;20053;-75
2022/07/14 09:14:11;;;;;;;2.55;0.60;;;21.10;99.90;;;;;;6258992;28;20049;-75
2022/07/14 09:17:17;;;;;;;2.58;0.60;;;21.30;99.90;;;;;;6274727;28;20053;-75
2022/07/14 09:20:19;;;;;;;3.08;0.57;;;21.50;99.90;;;;;;6275466;28;20041;-75
2022/07/14 09:23:27;;;;;;;6.05;0.68;;;21.40;99.90;;;;;;6307445;28;20049;-76
2022/07/14 09:26:30;;;;;;;4.28;1.13;;;20.90;99.90;;;;;;6274598;28;20084;-75
2022/07/14 09:29:34;;;;;;;4.38;0.82;;;20.90;99.90;;;;;;6274108;28;20056;-75
2022/07/14 09:32:47;;;;;;;2.45;0.82;;;20.80;99.90;;;;;;6273626;28;20127;-76
2022/07/14 09:35:49;;;;;;;2.70;0.60;;;20.70;99.90;;;;;;6274585;28;20159;-75
2022/07/14 09:38:51;;;;;;;3.13;0.93;;;20.80;99.90;;;;;;6273226;28;20136;-76
2022/07/14 09:41:56;;;;;;;2.88;0.77;;;20.90;99.90;;;;;;6274926;28;20060;-75
2022/07/14 09:45:10;;;;;;;5.43;0.70;;;21.00;99.90;;;;;;6274089;28;20391;-75
2022/07/14 09:48:13;;;;;;;3.35;0.80;;;20.80;99.90;;;;;;6305859;28;20487;-75
2022/07/14 09:51:16;;;;;;;1.73;0.50;;;20.60;99.90;;;;;;6274259;28;20045;-76
2022/07/14 09:54:40;;;;;;;1.83;0.50;;;20.60;99.90;;;;;;6290008;28;20044;-75
2022/07/14 09:57:42;;;;;;;2.22;0.57;;;21.00;99.90;;;;;;6272634;28;20045;-76
2022/07/14 10:00:55;;;;;;;3.57;0.90;;;21.20;99.90;;;;;;6272890;28;20056;-75
2022/07/14 10:03:59;;;;;;;3.22;1.00;;;21.00;99.90;;;;;;6273286;28;20510;-75
2022/07/14 10:07:01;;;;;;;4.75;1.23;;;20.90;99.90;;;;;;6264642;28;20514;-75
2022/07/14 10:10:06;;;;;;;4.40;0.90;;;21.00;99.90;;;;;;6266516;28;20041;-78
2022/07/14 10:13:09;;;;;;;11.90;1.30;;;20.90;99.90;;;;;;6266463;28;20045;-75
2022/07/14 10:16:13;;;;;;;3.85;0.82;;;20.60;99.90;;;;;;6267045;28;20075;-73
2022/07/14 10:19:16;;;;;;;4.85;1.00;;;20.60;99.90;;;;;;6251754;28;20502;-75
2022/07/14 10:22:20;;;;;;;4.80;1.03;;;20.40;99.90;;;;;;6260602;28;20563;-74
2022/07/14 10:25:24;;;;;;;3.28;0.63;;;20.20;99.90;;;;;;6272829;28;20512;-75
2022/07/14 10:28:27;;;;;;;2.30;0.57;;;20.00;99.90;;;;;;6271187;28;20454;-73
2022/07/14 10:31:39;;;;;;;3.90;1.17;;;20.10;99.90;;;;;;6269140;28;20498;-78
2022/07/14 10:34:51;;;;;;;1.73;0.52;;;20.30;99.90;;;;;;6259918;28;20053;-74
2022/07/14 10:38:13;;;;;;;3.05;0.60;;;20.40;99.90;;;;;;6266024;28;20049;-78
2022/07/14 10:41:36;;;;;;;2.85;0.60;;;20.60;99.90;;;;;;6246210;28;20041;-75
2022/07/14 10:44:43;;;;;;;2.57;0.50;;;21.00;99.90;;;;;;6245781;28;20046;-75
2022/07/14 10:47:49;;;;;;;4.97;0.70;;;21.10;99.90;;;;;;6268817;28;20048;-74
2022/07/14 10:51:21;;;;;;;4.10;1.00;;;21.00;99.90;;;;;;6271715;28;20597;-75
2022/07/14 10:54:25;;;;;;;3.10;0.60;;;21.10;99.90;;;;;;6272303;28;20056;-74
2022/07/14 10:57:27;;;;;;;3.35;0.88;;;21.00;99.90;;;;;;6248939;28;20053;-75
2022/07/14 11:00:57;;;;;;;2.38;0.50;;;20.90;99.90;;;;;;6246976;28;20434;-74
2022/07/14 11:04:01;;;;;;;2.15;0.50;;;20.80;99.90;;;;;;6246853;28;20132;-75
2022/07/14 11:07:38;;;;;;;2.17;0.43;;;20.70;99.90;;;;;;6251732;28;20049;-76
2022/07/14 11:11:09;;;;;;;2.10;0.60;;;20.60;99.90;;;;;;6270506;28;20144;-75
2022/07/14 11:14:13;;;;;;;5.22;0.70;;;20.50;99.90;;;;;;6250271;28;20053;-75
2022/07/14 11:17:38;;;;;;;3.35;1.30;;;20.40;99.90;;;;;;6246662;28;20042;-74
2022/07/14 11:20:53;;;;;;;3.03;1.00;;;20.20;99.90;;;;;;6246502;28;20042;-74
2022/07/14 11:23:55;;;;;;;4.55;0.95;;;20.20;99.90;;;;;;6246143;28;20466;-75
2022/07/14 11:26:58;;;;;;;3.28;0.95;;;20.20;99.90;;;;;;6261537;28;20049;-74
2022/07/14 11:30:21;;;;;;;2.60;0.60;;;20.30;99.90;;;;;;6251781;28;20046;-73
2022/07/14 11:33:32;;;;;;;2.40;0.70;;;20.10;99.90;;;;;;6252564;28;20155;-73
2022/07/14 11:36:35;;;;;;;4.07;1.10;;;19.90;99.90;;;;;;6257212;28;20051;-73
2022/07/14 11:39:38;;;;;;;2.80;0.60;;;19.80;99.90;;;;;;6257797;28;20120;-73
2022/07/14 11:42:43;;;;;;;4.00;0.70;;;19.70;99.90;;;;;;6260402;28;20498;-74
2022/07/14 11:45:56;;;;;;;3.90;0.85;;;19.70;99.90;;;;;;6248697;28;20049;-74
2022/07/14 11:49:00;;;;;;;2.85;0.70;;;19.80;99.90;;;;;;6255467;28;20140;-74
2022/07/14 11:52:05;;;;;;;3.83;0.90;;;19.80;99.90;;;;;;6257316;28;20133;-74
2022/07/14 11:55:10;;;;;;;4.70;0.70;;;20.10;99.90;;;;;;6258913;28;20041;-74
2022/07/14 11:58:14;;;;;;;4.38;0.70;;;20.20;99.90;;;;;;6260896;28;20091;-73
2022/07/14 12:01:17;;;;;;;2.63;0.65;;;20.20;99.90;;;;;;6271992;28;20060;-75
2022/07/14 12:04:19;;;;;;;1.27;0.45;;;20.20;99.90;;;;;;6254836;28;20048;-73
2022/07/14 12:07:24;;;;;;;4.80;0.80;;;20.40;99.90;;;;;;6248529;28;20049;-73
2022/07/14 12:10:44;;;;;;;3.78;0.75;;;20.70;99.90;;;;;;6246574;28;20521;-73
2022/07/14 12:13:53;;;;;;;3.72;0.80;;;20.80;99.90;;;;;;6263871;28;20056;-73
2022/07/14 12:16:55;;;;;;;4.32;0.80;;;20.80;99.90;;;;;;6257062;28;20504;-74
2022/07/14 12:19:57;;;;;;;5.40;0.77;;;21.10;99.90;;;;;;6257545;28;20505;-74
2022/07/14 12:23:00;;;;;;;4.15;0.73;;;21.10;99.90;;;;;;6256150;28;20045;-74
2022/07/14 12:26:03;;;;;;;2.97;0.60;;;21.00;99.90;;;;;;6253910;28;20064;-73
2022/07/14 12:29:06;;;;;;;2.55;0.65;;;21.00;99.90;;;;;;6275534;28;20053;-74
2022/07/14 12:32:09;;;;;;;9.77;1.40;;;21.00;99.90;;;;;;6246559;28;20053;-73
2022/07/14 12:35:11;;;;;;;4.23;0.90;;;21.10;99.90;;;;;;6251233;28;20042;-73
2022/07/14 12:38:17;;;;;;;3.38;0.70;;;21.00;99.90;;;;;;6256876;28;20049;-73
2022/07/14 12:41:22;;;;;;;4.72;0.77;;;21.20;99.90;;;;;;6287540;28;20380;-74
2022/07/14 12:44:24;;;;;;;3.67;0.77;;;21.30;99.90;;;;;;6269218;28;20077;-73
2022/07/14 12:47:25;;;;;;;4.15;0.80;;;21.30;99.90;;;;;;6247709;28;20056;-73
2022/07/14 12:50:29;;;;;;;6.10;0.88;;;21.40;99.90;;;;;;6248062;28;20046;-73
2022/07/14 12:53:32;;;;;;;3.38;0.85;;;21.30;99.90;;;;;;6256121;28;20045;-74
2022/07/14 12:56:37;;;;;;;2.65;0.70;;;21.30;99.90;;;;;;6257785;28;20054;-74
2022/07/14 12:59:39;;;;;;;2.42;0.50;;;21.10;99.90;;;;;;6253167;28;20045;-74
2022/07/14 13:02:41;;;;;;;4.22;0.65;;;21.00;99.90;;;;;;6284180;28;20053;-73
2022/07/14 13:05:48;;;;;;;4.28;1.00;;;20.80;99.90;;;;;;6259910;28;20041;-73
2022/07/14 13:08:51;;;;;;;5.15;0.77;;;20.70;99.90;;;;;;6267177;28;20052;-73
2022/07/14 13:11:55;;;;;;;;;;;20.50;99.90;;;;;;6259574;28;20515;-73
2022/07/14 13:14:57;;;;;;;3.40;0.65;;;20.50;99.90;;;;;;6258569;28;19921;-73
2022/07/14 13:18:00;;;;;;;4.45;1.15;;;20.70;99.90;;;;;;6263406;28;20071;-74
2022/07/14 13:21:02;;;;;;;6.45;0.70;;;20.90;99.30;;;;;;6287505;28;20045;-73
2022/07/14 13:24:13;;;;;;;4.68;0.90;;;21.00;99.90;;;;;;6255263;28;20060;-73
2022/07/14 13:27:17;;;;;;;2.40;0.77;;;20.90;99.20;;;;;;6264845;28;20045;-73
2022/07/14 13:30:19;;;;;;;4.20;0.90;;;20.90;99.20;;;;;;6250731;28;20045;-73
2022/07/14 13:33:21;;;;;;;3.60;1.10;;;20.80;99.20;;;;;;6255168;28;20049;-73
2022/07/14 13:36:23;;;;;;;7.40;1.10;;;20.60;99.70;;;;;;6248965;28;20053;-73
2022/07/14 13:39:28;;;;;;;4.30;0.85;;;20.60;99.90;;;;;;6254646;28;21299;-73
2022/07/14 13:42:30;;;;;;;3.40;0.90;;;20.50;99.90;;;;;;6268811;28;20560;-73
2022/07/14 13:45:32;;;;;;;3.05;0.90;;;20.40;99.90;;;;;;6259512;28;20069;-73
2022/07/14 13:48:34;;;;;;;2.30;0.90;;;20.30;99.90;;;;;;6272295;28;20487;-73
2022/07/14 13:54:56;;;;;;;4.07;1.00;;;20.20;99.90;;;;;;6248795;28;20406;-73
2022/07/14 13:57:58;;;;;;;4.70;1.58;;;20.10;99.90;;;;;;6254719;28;20042;-73
2022/07/14 14:01:00;;;;;;;8.23;1.40;;;20.20;99.90;;;;;;6258148;28;20497;-73
2022/07/14 14:04:02;;;;;;;3.95;1.30;;;20.20;99.90;;;;;;6264366;28;20059;-73
2022/07/14 14:07:04;;;;;;;3.80;1.73;;;20.10;99.90;;;;;;6249037;28;20437;-73
2022/07/14 14:10:08;;;;;;;4.75;1.55;;;20.30;99.90;;;;;;6281409;28;20057;-73
2022/07/14 14:13:10;;;;;;;4.10;1.00;;;20.60;99.90;;;;;;6251880;28;20052;-74
2022/07/14 14:16:12;;;;;;;3.15;0.65;;;20.90;99.90;;;;;;6258951;28;20049;-73
2022/07/14 14:19:17;;;;;;;3.67;0.90;;;21.10;99.90;;;;;;6269095;28;20053;-73
2022/07/14 14:22:20;;;;;;;3.90;1.08;;;20.90;99.90;;;;;;6248607;28;20050;-74
2022/07/14 14:25:23;;;;;;;2.70;0.80;;;20.80;99.90;;;;;;6255426;28;20111;-73
2022/07/14 14:28:25;;;;;;;5.30;1.00;;;20.70;99.90;;;;;;6248753;28;20064;-73
2022/07/14 14:31:27;;;;;;;5.15;1.23;;;20.50;99.90;;;;;;6249234;28;20068;-73
2022/07/14 14:34:29;;;;;;;4.65;0.80;;;20.40;99.90;;;;;;6248002;28;20057;-73
2022/07/14 14:37:31;;;;;;;6.47;1.38;;;20.30;99.90;;;;;;6274489;28;20049;-73
2022/07/14 14:40:35;;;;;;;4.28;1.20;;;20.30;99.90;;;;;;6264778;28;20486;-74
2022/07/14 14:43:37;;;;;;;4.15;0.90;;;20.50;99.90;;;;;;6282735;28;20391;-74
2022/07/14 14:46:39;;;;;;;2.10;0.68;;;20.60;99.90;;;;;;6261645;28;20060;-73
2022/07/14 14:49:53;;;;;;;6.15;1.30;;;20.60;99.90;;;;;;6263687;28;20128;-72
2022/07/14 14:52:55;;;;;;;4.70;1.17;;;20.60;99.90;;;;;;6265463;28;20049;-74
2022/07/14 14:55:59;;;;;;;5.18;1.50;;;20.70;99.90;;;;;;6251803;28;20487;-75
2022/07/14 14:59:00;;;;;;;2.72;0.85;;;20.70;99.90;;;;;;6258575;28;20081;-73
2022/07/14 15:02:02;;;;;;;6.35;1.25;;;20.70;99.40;;;;;;6257531;28;20053;-72
2022/07/14 15:05:06;;;;;;;3.95;1.50;;;20.60;98.90;;;;;;6258397;28;20049;-73
2022/07/14 15:08:08;;;;;;;3.60;1.10;;;20.40;99.60;;;;;;6255326;28;20053;-74
2022/07/14 15:11:11;;;;;;;3.13;1.00;;;20.30;99.30;;;;;;6259523;28;20045;-74
2022/07/14 15:14:13;;;;;;;5.22;1.02;;;20.30;99.30;;;;;;6262154;28;20080;-75
2022/07/14 15:17:16;;;;;;;4.88;1.10;;;20.30;99.00;;;;;;6269691;28;20049;-73
2022/07/14 15:20:18;;;;;;;3.08;0.80;;;20.20;99.00;;;;;;6269883;28;20052;-76
2022/07/14 15:23:20;;;;;;;6.63;0.98;;;20.20;98.60;;;;;;6271178;28;20509;-75
2022/07/14 15:26:23;;;;;;;4.10;0.80;;;20.30;98.40;;;;;;6270282;28;20045;-75
2022/07/14 15:29:26;;;;;;;8.95;1.05;;;20.20;98.60;;;;;;6267631;28;20059;-73
2022/07/14 15:32:28;;;;;;;9.27;1.50;;;20.20;99.90;;;;;;6270906;28;20563;-74
2022/07/14 15:35:30;;;;;;;4.07;0.90;;;20.20;99.90;;;;;;6285873;28;20052;-74
2022/07/14 15:38:32;;;;;;;6.85;1.10;;;20.10;99.90;;;;;;6253899;28;20526;-72
2022/07/14 15:41:34;;;;;;;5.65;1.45;;;19.80;99.90;;;;;;6270794;28;20049;-75
2022/07/14 15:44:36;;;;;;;5.65;1.08;;;19.60;99.90;;;;;;6262758;28;20056;-75
2022/07/14 15:47:38;;;;;;;6.07;1.55;;;19.50;99.90;;;;;;6279287;28;20053;-77
2022/07/14 15:50:40;;;;;;;6.53;1.20;;;19.30;99.90;;;;;;6268734;28;20045;-75
2022/07/14 15:53:42;;;;;;;7.40;2.00;;;19.10;99.90;;;;;;6270726;28;20057;-74
2022/07/14 15:56:45;;;;;;;7.85;2.15;;;19.00;99.90;;;;;;6270647;28;20053;-74
2022/07/14 15:59:47;;;;;;;6.68;3.10;;;18.80;99.90;;;;;;6267297;28;20052;-73
2022/07/14 16:02:49;;;;;;;9.13;2.00;;;18.70;99.90;;;;;;6264904;28;20124;-73
2022/07/14 16:05:51;;;;;;;4.53;1.60;;;18.50;99.90;;;;;;6268256;28;20052;-71
2022/07/14 16:08:53;;;;;;;4.35;1.27;;;18.30;99.90;;;;;;6279969;28;20140;-74